<?xml version="1.0" encoding="UTF-8" standalone="no" ?>
<gpx xmlns="http://www.topografix.com/GPX/1/1" xmlns:xsi="http://www.w3.org/2001/XMLSchema-instance" xsi:schemaLocation="http://www.topografix.com/GPX/1/1 http://www.topografix.com/GPX/1/1/gpx.xsd" version="1.1" creator="VisuGPX - https://www.visugpx.com">
  <metadata>
    <name>Saint Disdier Gicon AM</name>
    <desc><![CDATA[File with points/tracks from Locus Map/3.18.6]]></desc>
  </metadata>
  <trk>
    <name><![CDATA[F05250 Saint Disdier Gicon LT AM JPT]]></name>
    <trkseg>
      <trkpt lat="44.73597" lon="5.90923">
        <ele>1413.75</ele>
        <time>2016-08-15T11:21:33Z</time>
      </trkpt>
      <trkpt lat="44.73619" lon="5.90912">
        <ele>1414.75</ele>
        <time>2016-08-15T11:23:15Z</time>
      </trkpt>
      <trkpt lat="44.73642" lon="5.90917">
        <ele>1413.17</ele>
        <time>2016-08-15T11:23:37Z</time>
      </trkpt>
      <trkpt lat="44.73665" lon="5.9092">
        <ele>1412.29</ele>
        <time>2016-08-15T11:23:55Z</time>
      </trkpt>
      <trkpt lat="44.73688" lon="5.90915">
        <ele>1409.39</ele>
        <time>2016-08-15T11:24:19Z</time>
      </trkpt>
      <trkpt lat="44.73711" lon="5.90921">
        <ele>1407.07</ele>
        <time>2016-08-15T11:24:33Z</time>
      </trkpt>
      <trkpt lat="44.73734" lon="5.90919">
        <ele>1400.89</ele>
        <time>2016-08-15T11:24:49Z</time>
      </trkpt>
      <trkpt lat="44.73755" lon="5.90908">
        <ele>1398</ele>
        <time>2016-08-15T11:25:11Z</time>
      </trkpt>
      <trkpt lat="44.73763" lon="5.90869">
        <ele>1396.05</ele>
        <time>2016-08-15T11:25:17Z</time>
      </trkpt>
      <trkpt lat="44.73776" lon="5.90896">
        <ele>1396.24</ele>
        <time>2016-08-15T11:25:31Z</time>
      </trkpt>
      <trkpt lat="44.73799" lon="5.909">
        <ele>1395.75</ele>
        <time>2016-08-15T11:25:53Z</time>
      </trkpt>
      <trkpt lat="44.73822" lon="5.90889">
        <ele>1399.06</ele>
        <time>2016-08-15T11:26:10Z</time>
      </trkpt>
      <trkpt lat="44.7384" lon="5.90864">
        <ele>1398.81</ele>
        <time>2016-08-15T11:26:30Z</time>
      </trkpt>
      <trkpt lat="44.73865" lon="5.90863">
        <ele>1392.37</ele>
        <time>2016-08-15T11:26:51Z</time>
      </trkpt>
      <trkpt lat="44.73888" lon="5.90859">
        <ele>1391.12</ele>
        <time>2016-08-15T11:27:13Z</time>
      </trkpt>
      <trkpt lat="44.7391" lon="5.90849">
        <ele>1391.05</ele>
        <time>2016-08-15T11:27:28Z</time>
      </trkpt>
      <trkpt lat="44.73931" lon="5.90861">
        <ele>1390.49</ele>
        <time>2016-08-15T11:27:50Z</time>
      </trkpt>
      <trkpt lat="44.73953" lon="5.90863">
        <ele>1392.25</ele>
        <time>2016-08-15T11:28:19Z</time>
      </trkpt>
      <trkpt lat="44.73978" lon="5.90856">
        <ele>1388.32</ele>
        <time>2016-08-15T11:28:34Z</time>
      </trkpt>
      <trkpt lat="44.74003" lon="5.90851">
        <ele>1385.13</ele>
        <time>2016-08-15T11:29:09Z</time>
      </trkpt>
      <trkpt lat="44.74019" lon="5.90826">
        <ele>1398.86</ele>
        <time>2016-08-15T11:29:35Z</time>
      </trkpt>
      <trkpt lat="44.74028" lon="5.90797">
        <ele>1400.75</ele>
        <time>2016-08-15T11:29:47Z</time>
      </trkpt>
      <trkpt lat="44.7405" lon="5.90785">
        <ele>1395.2</ele>
        <time>2016-08-15T11:30:13Z</time>
      </trkpt>
      <trkpt lat="44.74071" lon="5.90776">
        <ele>1398.89</ele>
        <time>2016-08-15T11:30:31Z</time>
      </trkpt>
      <trkpt lat="44.74088" lon="5.90755">
        <ele>1400.91</ele>
        <time>2016-08-15T11:30:53Z</time>
      </trkpt>
      <trkpt lat="44.7411" lon="5.90754">
        <ele>1397.14</ele>
        <time>2016-08-15T11:31:07Z</time>
      </trkpt>
      <trkpt lat="44.74133" lon="5.90746">
        <ele>1398.31</ele>
        <time>2016-08-15T11:31:30Z</time>
      </trkpt>
      <trkpt lat="44.74154" lon="5.90729">
        <ele>1395.25</ele>
        <time>2016-08-15T11:31:52Z</time>
      </trkpt>
      <trkpt lat="44.74167" lon="5.90702">
        <ele>1400.18</ele>
        <time>2016-08-15T11:32:23Z</time>
      </trkpt>
      <trkpt lat="44.74178" lon="5.90671">
        <ele>1406.19</ele>
        <time>2016-08-15T11:32:48Z</time>
      </trkpt>
      <trkpt lat="44.74184" lon="5.9064">
        <ele>1404.33</ele>
        <time>2016-08-15T11:33:07Z</time>
      </trkpt>
      <trkpt lat="44.74188" lon="5.90609">
        <ele>1402.52</ele>
        <time>2016-08-15T11:33:30Z</time>
      </trkpt>
      <trkpt lat="44.74189" lon="5.90577">
        <ele>1408</ele>
        <time>2016-08-15T11:34:42Z</time>
      </trkpt>
      <trkpt lat="44.74194" lon="5.90546">
        <ele>1416.85</ele>
        <time>2016-08-15T11:34:57Z</time>
      </trkpt>
      <trkpt lat="44.74204" lon="5.90517">
        <ele>1423.76</ele>
        <time>2016-08-15T11:35:16Z</time>
      </trkpt>
      <trkpt lat="44.74207" lon="5.90484">
        <ele>1426.89</ele>
        <time>2016-08-15T11:35:35Z</time>
      </trkpt>
      <trkpt lat="44.74221" lon="5.90459">
        <ele>1423.19</ele>
        <time>2016-08-15T11:36:36Z</time>
      </trkpt>
      <trkpt lat="44.74241" lon="5.90441">
        <ele>1427.7</ele>
        <time>2016-08-15T11:37:03Z</time>
      </trkpt>
      <trkpt lat="44.74263" lon="5.90432">
        <ele>1429.98</ele>
        <time>2016-08-15T11:37:21Z</time>
      </trkpt>
      <trkpt lat="44.74283" lon="5.90417">
        <ele>1427.02</ele>
        <time>2016-08-15T11:39:10Z</time>
      </trkpt>
      <trkpt lat="44.74303" lon="5.90399">
        <ele>1430.74</ele>
        <time>2016-08-15T11:40:49Z</time>
      </trkpt>
      <trkpt lat="44.74323" lon="5.90384">
        <ele>1435.95</ele>
        <time>2016-08-15T11:41:08Z</time>
      </trkpt>
      <trkpt lat="44.74342" lon="5.90361">
        <ele>1441.01</ele>
        <time>2016-08-15T11:41:28Z</time>
      </trkpt>
      <trkpt lat="44.74364" lon="5.90354">
        <ele>1443.3</ele>
        <time>2016-08-15T11:41:57Z</time>
      </trkpt>
      <trkpt lat="44.74385" lon="5.90339">
        <ele>1444.02</ele>
        <time>2016-08-15T11:42:18Z</time>
      </trkpt>
      <trkpt lat="44.74408" lon="5.90331">
        <ele>1449.25</ele>
        <time>2016-08-15T11:42:43Z</time>
      </trkpt>
      <trkpt lat="44.74428" lon="5.90313">
        <ele>1453.5</ele>
        <time>2016-08-15T11:43:12Z</time>
      </trkpt>
      <trkpt lat="44.74447" lon="5.90295">
        <ele>1448.31</ele>
        <time>2016-08-15T11:43:27Z</time>
      </trkpt>
      <trkpt lat="44.74465" lon="5.90273">
        <ele>1452.77</ele>
        <time>2016-08-15T11:43:43Z</time>
      </trkpt>
      <trkpt lat="44.74479" lon="5.90249">
        <ele>1453.77</ele>
        <time>2016-08-15T11:44:01Z</time>
      </trkpt>
      <trkpt lat="44.74501" lon="5.90239">
        <ele>1454</ele>
        <time>2016-08-15T11:44:23Z</time>
      </trkpt>
      <trkpt lat="44.74521" lon="5.90221">
        <ele>1456.73</ele>
        <time>2016-08-15T11:44:45Z</time>
      </trkpt>
      <trkpt lat="44.74543" lon="5.90211">
        <ele>1465.82</ele>
        <time>2016-08-15T11:45:08Z</time>
      </trkpt>
      <trkpt lat="44.74565" lon="5.90202">
        <ele>1466.02</ele>
        <time>2016-08-15T11:45:35Z</time>
      </trkpt>
      <trkpt lat="44.74587" lon="5.90193">
        <ele>1464.31</ele>
        <time>2016-08-15T11:45:49Z</time>
      </trkpt>
      <trkpt lat="44.74609" lon="5.90186">
        <ele>1466.05</ele>
        <time>2016-08-15T11:46:12Z</time>
      </trkpt>
      <trkpt lat="44.74632" lon="5.90185">
        <ele>1472.92</ele>
        <time>2016-08-15T11:46:38Z</time>
      </trkpt>
      <trkpt lat="44.74656" lon="5.90182">
        <ele>1474.5</ele>
        <time>2016-08-15T11:47:07Z</time>
      </trkpt>
      <trkpt lat="44.74679" lon="5.90185">
        <ele>1476.26</ele>
        <time>2016-08-15T11:47:33Z</time>
      </trkpt>
      <trkpt lat="44.74702" lon="5.90186">
        <ele>1478.68</ele>
        <time>2016-08-15T11:47:58Z</time>
      </trkpt>
      <trkpt lat="44.74725" lon="5.90189">
        <ele>1484.48</ele>
        <time>2016-08-15T11:48:25Z</time>
      </trkpt>
      <trkpt lat="44.74747" lon="5.90206">
        <ele>1486</ele>
        <time>2016-08-15T11:52:01Z</time>
      </trkpt>
      <trkpt lat="44.74772" lon="5.9021">
        <ele>1486.17</ele>
        <time>2016-08-15T11:52:14Z</time>
      </trkpt>
      <trkpt lat="44.74794" lon="5.90221">
        <ele>1488.8</ele>
        <time>2016-08-15T11:52:38Z</time>
      </trkpt>
      <trkpt lat="44.74816" lon="5.90235">
        <ele>1496.68</ele>
        <time>2016-08-15T11:53:01Z</time>
      </trkpt>
      <trkpt lat="44.74836" lon="5.90251">
        <ele>1499.93</ele>
        <time>2016-08-15T11:53:34Z</time>
      </trkpt>
      <trkpt lat="44.74849" lon="5.90278">
        <ele>1499.06</ele>
        <time>2016-08-15T11:53:59Z</time>
      </trkpt>
      <trkpt lat="44.74865" lon="5.90302">
        <ele>1502.01</ele>
        <time>2016-08-15T11:54:33Z</time>
      </trkpt>
      <trkpt lat="44.74887" lon="5.90307">
        <ele>1518.81</ele>
        <time>2016-08-15T11:55:22Z</time>
      </trkpt>
      <trkpt lat="44.74908" lon="5.90293">
        <ele>1529.67</ele>
        <time>2016-08-15T11:56:01Z</time>
      </trkpt>
      <trkpt lat="44.74927" lon="5.90273">
        <ele>1532.01</ele>
        <time>2016-08-15T11:56:35Z</time>
      </trkpt>
      <trkpt lat="44.74949" lon="5.90262">
        <ele>1536</ele>
        <time>2016-08-15T11:57:10Z</time>
      </trkpt>
      <trkpt lat="44.7497" lon="5.90275">
        <ele>1537.94</ele>
        <time>2016-08-15T11:57:51Z</time>
      </trkpt>
      <trkpt lat="44.74991" lon="5.90293">
        <ele>1546.5</ele>
        <time>2016-08-15T11:58:22Z</time>
      </trkpt>
      <trkpt lat="44.75009" lon="5.90313">
        <ele>1548.75</ele>
        <time>2016-08-15T11:58:52Z</time>
      </trkpt>
      <trkpt lat="44.75029" lon="5.90326">
        <ele>1559.98</ele>
        <time>2016-08-15T11:59:16Z</time>
      </trkpt>
      <trkpt lat="44.7503" lon="5.90358">
        <ele>1563.29</ele>
        <time>2016-08-15T11:59:45Z</time>
      </trkpt>
      <trkpt lat="44.75028" lon="5.9039">
        <ele>1562</ele>
        <time>2016-08-15T12:00:21Z</time>
      </trkpt>
      <trkpt lat="44.75021" lon="5.90422">
        <ele>1568.1</ele>
        <time>2016-08-15T12:00:51Z</time>
      </trkpt>
      <trkpt lat="44.75044" lon="5.90424">
        <ele>1578.06</ele>
        <time>2016-08-15T12:01:32Z</time>
      </trkpt>
      <trkpt lat="44.75067" lon="5.9043">
        <ele>1583.13</ele>
        <time>2016-08-15T12:02:02Z</time>
      </trkpt>
      <trkpt lat="44.75092" lon="5.90428">
        <ele>1580.11</ele>
        <time>2016-08-15T12:02:31Z</time>
      </trkpt>
      <trkpt lat="44.75103" lon="5.90457">
        <ele>1593.19</ele>
        <time>2016-08-15T12:03:06Z</time>
      </trkpt>
      <trkpt lat="44.75126" lon="5.90461">
        <ele>1593.06</ele>
        <time>2016-08-15T12:03:35Z</time>
      </trkpt>
      <trkpt lat="44.7515" lon="5.90461">
        <ele>1594</ele>
        <time>2016-08-15T12:03:54Z</time>
      </trkpt>
      <trkpt lat="44.75166" lon="5.90487">
        <ele>1599.75</ele>
        <time>2016-08-15T12:04:23Z</time>
      </trkpt>
      <trkpt lat="44.75185" lon="5.90507">
        <ele>1593.32</ele>
        <time>2016-08-15T12:04:45Z</time>
      </trkpt>
      <trkpt lat="44.75208" lon="5.90519">
        <ele>1595.75</ele>
        <time>2016-08-15T12:05:03Z</time>
      </trkpt>
      <trkpt lat="44.75228" lon="5.90534">
        <ele>1598.27</ele>
        <time>2016-08-15T12:05:21Z</time>
      </trkpt>
      <trkpt lat="44.75247" lon="5.90552">
        <ele>1601.56</ele>
        <time>2016-08-15T12:05:47Z</time>
      </trkpt>
      <trkpt lat="44.75271" lon="5.90559">
        <ele>1607.25</ele>
        <time>2016-08-15T12:06:08Z</time>
      </trkpt>
      <trkpt lat="44.75289" lon="5.90579">
        <ele>1603.34</ele>
        <time>2016-08-15T12:06:39Z</time>
      </trkpt>
      <trkpt lat="44.75314" lon="5.90589">
        <ele>1601.95</ele>
        <time>2016-08-15T12:06:47Z</time>
      </trkpt>
      <trkpt lat="44.75338" lon="5.906">
        <ele>1596.8</ele>
        <time>2016-08-15T12:07:07Z</time>
      </trkpt>
      <trkpt lat="44.7536" lon="5.90589">
        <ele>1609</ele>
        <time>2016-08-15T12:08:07Z</time>
      </trkpt>
      <trkpt lat="44.75383" lon="5.9059">
        <ele>1602.38</ele>
        <time>2016-08-15T12:11:59Z</time>
      </trkpt>
      <trkpt lat="44.75405" lon="5.90587">
        <ele>1602.56</ele>
        <time>2016-08-15T12:12:11Z</time>
      </trkpt>
      <trkpt lat="44.75426" lon="5.90571">
        <ele>1599.19</ele>
        <time>2016-08-15T12:12:32Z</time>
      </trkpt>
      <trkpt lat="44.75446" lon="5.90553">
        <ele>1606.79</ele>
        <time>2016-08-15T12:13:02Z</time>
      </trkpt>
      <trkpt lat="44.75467" lon="5.9054">
        <ele>1613.25</ele>
        <time>2016-08-15T12:13:35Z</time>
      </trkpt>
      <trkpt lat="44.7549" lon="5.90528">
        <ele>1620.12</ele>
        <time>2016-08-15T12:14:00Z</time>
      </trkpt>
      <trkpt lat="44.75513" lon="5.90523">
        <ele>1634.94</ele>
        <time>2016-08-15T12:15:41Z</time>
      </trkpt>
      <trkpt lat="44.75531" lon="5.90542">
        <ele>1646</ele>
        <time>2016-08-15T12:16:02Z</time>
      </trkpt>
      <trkpt lat="44.75535" lon="5.90576">
        <ele>1651.31</ele>
        <time>2016-08-15T12:17:08Z</time>
      </trkpt>
      <trkpt lat="44.75527" lon="5.90607">
        <ele>1654.73</ele>
        <time>2016-08-15T12:17:25Z</time>
      </trkpt>
      <trkpt lat="44.75519" lon="5.90638">
        <ele>1661.1</ele>
        <time>2016-08-15T12:17:51Z</time>
      </trkpt>
      <trkpt lat="44.75509" lon="5.90666">
        <ele>1660.43</ele>
        <time>2016-08-15T12:19:10Z</time>
      </trkpt>
      <trkpt lat="44.75492" lon="5.90686">
        <ele>1666.4</ele>
        <time>2016-08-15T12:19:24Z</time>
      </trkpt>
      <trkpt lat="44.75484" lon="5.90717">
        <ele>1665.64</ele>
        <time>2016-08-15T12:19:45Z</time>
      </trkpt>
      <trkpt lat="44.75475" lon="5.90746">
        <ele>1673.12</ele>
        <time>2016-08-15T12:20:37Z</time>
      </trkpt>
      <trkpt lat="44.75469" lon="5.90778">
        <ele>1667.05</ele>
        <time>2016-08-15T12:21:01Z</time>
      </trkpt>
      <trkpt lat="44.75472" lon="5.9081">
        <ele>1666.06</ele>
        <time>2016-08-15T12:21:41Z</time>
      </trkpt>
      <trkpt lat="44.75479" lon="5.9084">
        <ele>1668.75</ele>
        <time>2016-08-15T12:22:04Z</time>
      </trkpt>
      <trkpt lat="44.75482" lon="5.90872">
        <ele>1675.96</ele>
        <time>2016-08-15T12:22:30Z</time>
      </trkpt>
      <trkpt lat="44.75497" lon="5.90897">
        <ele>1683.68</ele>
        <time>2016-08-15T12:23:52Z</time>
      </trkpt>
      <trkpt lat="44.75508" lon="5.90928">
        <ele>1696.77</ele>
        <time>2016-08-15T12:25:05Z</time>
      </trkpt>
      <trkpt lat="44.75516" lon="5.90959">
        <ele>1705</ele>
        <time>2016-08-15T12:26:25Z</time>
      </trkpt>
      <trkpt lat="44.75524" lon="5.90989">
        <ele>1707.06</ele>
        <time>2016-08-15T12:29:24Z</time>
      </trkpt>
      <trkpt lat="44.75538" lon="5.91014">
        <ele>1723.97</ele>
        <time>2016-08-15T12:30:26Z</time>
      </trkpt>
      <trkpt lat="44.75539" lon="5.91048">
        <ele>1736.91</ele>
        <time>2016-08-15T12:31:56Z</time>
      </trkpt>
      <trkpt lat="44.7554" lon="5.9108">
        <ele>1742.87</ele>
        <time>2016-08-15T12:34:01Z</time>
      </trkpt>
      <trkpt lat="44.75538" lon="5.91112">
        <ele>1752.92</ele>
        <time>2016-08-15T12:37:58Z</time>
      </trkpt>
      <trkpt lat="44.75544" lon="5.91147">
        <ele>1762.98</ele>
        <time>2016-08-15T12:38:48Z</time>
      </trkpt>
      <trkpt lat="44.7555" lon="5.9118">
        <ele>1764.99</ele>
        <time>2016-08-15T12:41:57Z</time>
      </trkpt>
      <trkpt lat="44.75555" lon="5.91211">
        <ele>1790.27</ele>
        <time>2016-08-15T12:46:53Z</time>
      </trkpt>
      <trkpt lat="44.75549" lon="5.91242">
        <ele>1800.31</ele>
        <time>2016-08-15T12:49:44Z</time>
      </trkpt>
      <trkpt lat="44.7556" lon="5.9127">
        <ele>1819</ele>
        <time>2016-08-15T12:53:38Z</time>
      </trkpt>
      <trkpt lat="44.7557" lon="5.91299">
        <ele>1833.67</ele>
        <time>2016-08-15T12:57:00Z</time>
      </trkpt>
      <trkpt lat="44.75579" lon="5.91329">
        <ele>1845.44</ele>
        <time>2016-08-15T13:02:31Z</time>
      </trkpt>
      <trkpt lat="44.75597" lon="5.91349">
        <ele>1863.23</ele>
        <time>2016-08-15T13:04:02Z</time>
      </trkpt>
      <trkpt lat="44.7562" lon="5.91352">
        <ele>1870.09</ele>
        <time>2016-08-15T13:04:33Z</time>
      </trkpt>
      <trkpt lat="44.75615" lon="5.91384">
        <ele>1880.69</ele>
        <time>2016-08-15T13:08:24Z</time>
      </trkpt>
      <trkpt lat="44.75598" lon="5.91407">
        <ele>1889.87</ele>
        <time>2016-08-15T13:09:47Z</time>
      </trkpt>
      <trkpt lat="44.75575" lon="5.91411">
        <ele>1897.65</ele>
        <time>2016-08-15T13:11:11Z</time>
      </trkpt>
      <trkpt lat="44.75553" lon="5.91416">
        <ele>1901.93</ele>
        <time>2016-08-15T13:11:37Z</time>
      </trkpt>
      <trkpt lat="44.75543" lon="5.91445">
        <ele>1906.05</ele>
        <time>2016-08-15T13:12:19Z</time>
      </trkpt>
      <trkpt lat="44.75522" lon="5.91458">
        <ele>1909.77</ele>
        <time>2016-08-15T13:13:24Z</time>
      </trkpt>
      <trkpt lat="44.75501" lon="5.91473">
        <ele>1914.64</ele>
        <time>2016-08-15T13:14:00Z</time>
      </trkpt>
      <trkpt lat="44.75497" lon="5.91505">
        <ele>1924.12</ele>
        <time>2016-08-15T13:17:14Z</time>
      </trkpt>
      <trkpt lat="44.75483" lon="5.91531">
        <ele>1930.75</ele>
        <time>2016-08-15T13:18:40Z</time>
      </trkpt>
      <trkpt lat="44.75473" lon="5.91561">
        <ele>1939.67</ele>
        <time>2016-08-15T13:19:16Z</time>
      </trkpt>
      <trkpt lat="44.75453" lon="5.91575">
        <ele>1950.92</ele>
        <time>2016-08-15T13:20:57Z</time>
      </trkpt>
      <trkpt lat="44.75431" lon="5.91584">
        <ele>1961.93</ele>
        <time>2016-08-15T13:41:07Z</time>
      </trkpt>
      <trkpt lat="44.75419" lon="5.91613">
        <ele>1962.23</ele>
        <time>2016-08-15T13:41:43Z</time>
      </trkpt>
      <trkpt lat="44.75403" lon="5.91636">
        <ele>1969.5</ele>
        <time>2016-08-15T13:42:25Z</time>
      </trkpt>
      <trkpt lat="44.75384" lon="5.91654">
        <ele>1975.67</ele>
        <time>2016-08-15T13:43:07Z</time>
      </trkpt>
      <trkpt lat="44.75363" lon="5.91664">
        <ele>1982.25</ele>
        <time>2016-08-15T13:44:02Z</time>
      </trkpt>
      <trkpt lat="44.75345" lon="5.91687">
        <ele>1986.01</ele>
        <time>2016-08-15T13:44:35Z</time>
      </trkpt>
      <trkpt lat="44.75323" lon="5.91685">
        <ele>1991.93</ele>
        <time>2016-08-15T13:45:22Z</time>
      </trkpt>
      <trkpt lat="44.75302" lon="5.91703">
        <ele>1989.26</ele>
        <time>2016-08-15T13:48:23Z</time>
      </trkpt>
      <trkpt lat="44.75284" lon="5.91722">
        <ele>1988.92</ele>
        <time>2016-08-15T13:48:43Z</time>
      </trkpt>
      <trkpt lat="44.75268" lon="5.91748">
        <ele>1980.52</ele>
        <time>2016-08-15T13:51:33Z</time>
      </trkpt>
      <trkpt lat="44.75253" lon="5.91775">
        <ele>1974.99</ele>
        <time>2016-08-15T13:51:43Z</time>
      </trkpt>
      <trkpt lat="44.75259" lon="5.91809">
        <ele>1977.93</ele>
        <time>2016-08-15T13:51:55Z</time>
      </trkpt>
      <trkpt lat="44.75252" lon="5.9184">
        <ele>1987</ele>
        <time>2016-08-15T13:54:28Z</time>
      </trkpt>
      <trkpt lat="44.75242" lon="5.9187">
        <ele>1993</ele>
        <time>2016-08-15T13:54:47Z</time>
      </trkpt>
      <trkpt lat="44.75234" lon="5.91901">
        <ele>2001.93</ele>
        <time>2016-08-15T13:55:25Z</time>
      </trkpt>
      <trkpt lat="44.75225" lon="5.91933">
        <ele>2000.74</ele>
        <time>2016-08-15T13:55:56Z</time>
      </trkpt>
      <trkpt lat="44.75235" lon="5.91963">
        <ele>2003.89</ele>
        <time>2016-08-15T13:59:24Z</time>
      </trkpt>
      <trkpt lat="44.75235" lon="5.91996">
        <ele>2003</ele>
        <time>2016-08-15T13:59:37Z</time>
      </trkpt>
      <trkpt lat="44.75232" lon="5.92028">
        <ele>2006.31</ele>
        <time>2016-08-15T13:59:58Z</time>
      </trkpt>
      <trkpt lat="44.75223" lon="5.92058">
        <ele>2013.12</ele>
        <time>2016-08-15T14:00:24Z</time>
      </trkpt>
      <trkpt lat="44.75219" lon="5.9209">
        <ele>2022.81</ele>
        <time>2016-08-15T14:01:11Z</time>
      </trkpt>
      <trkpt lat="44.75198" lon="5.92082">
        <ele>2028.95</ele>
        <time>2016-08-15T14:05:18Z</time>
      </trkpt>
      <trkpt lat="44.75176" lon="5.9207">
        <ele>2035</ele>
        <time>2016-08-15T14:06:58Z</time>
      </trkpt>
      <trkpt lat="44.75152" lon="5.92061">
        <ele>2039.2</ele>
        <time>2016-08-15T14:07:46Z</time>
      </trkpt>
      <trkpt lat="44.7513" lon="5.92056">
        <ele>2049.88</ele>
        <time>2016-08-15T14:10:22Z</time>
      </trkpt>
      <trkpt lat="44.75109" lon="5.9204">
        <ele>2071.68</ele>
        <time>2016-08-15T14:12:55Z</time>
      </trkpt>
      <trkpt lat="44.75099" lon="5.92012">
        <ele>2078.03</ele>
        <time>2016-08-15T14:13:14Z</time>
      </trkpt>
      <trkpt lat="44.75103" lon="5.9198">
        <ele>2081.75</ele>
        <time>2016-08-15T14:13:49Z</time>
      </trkpt>
      <trkpt lat="44.75121" lon="5.91958">
        <ele>2097.23</ele>
        <time>2016-08-15T14:14:56Z</time>
      </trkpt>
      <trkpt lat="44.75139" lon="5.91937">
        <ele>2103.93</ele>
        <time>2016-08-15T14:15:46Z</time>
      </trkpt>
      <trkpt lat="44.75159" lon="5.91922">
        <ele>2116.76</ele>
        <time>2016-08-15T14:17:13Z</time>
      </trkpt>
      <trkpt lat="44.75178" lon="5.91905">
        <ele>2123.92</ele>
        <time>2016-08-15T14:18:19Z</time>
      </trkpt>
      <trkpt lat="44.75183" lon="5.91871">
        <ele>2126.55</ele>
        <time>2016-08-15T14:19:21Z</time>
      </trkpt>
      <trkpt lat="44.75198" lon="5.91845">
        <ele>2123.02</ele>
        <time>2016-08-15T14:20:18Z</time>
      </trkpt>
      <trkpt lat="44.75212" lon="5.91819">
        <ele>2128.75</ele>
        <time>2016-08-15T14:20:46Z</time>
      </trkpt>
      <trkpt lat="44.75225" lon="5.91793">
        <ele>2133.5</ele>
        <time>2016-08-15T14:21:46Z</time>
      </trkpt>
      <trkpt lat="44.75218" lon="5.91762">
        <ele>2137.98</ele>
        <time>2016-08-15T14:22:03Z</time>
      </trkpt>
      <trkpt lat="44.752" lon="5.91743">
        <ele>2138.06</ele>
        <time>2016-08-15T14:40:30Z</time>
      </trkpt>
      <trkpt lat="44.75181" lon="5.9172">
        <ele>2134.07</ele>
        <time>2016-08-15T14:41:03Z</time>
      </trkpt>
      <trkpt lat="44.75161" lon="5.91706">
        <ele>2132.19</ele>
        <time>2016-08-15T14:41:21Z</time>
      </trkpt>
      <trkpt lat="44.75143" lon="5.91686">
        <ele>2125.01</ele>
        <time>2016-08-15T14:42:25Z</time>
      </trkpt>
      <trkpt lat="44.75121" lon="5.91676">
        <ele>2120.2</ele>
        <time>2016-08-15T14:43:47Z</time>
      </trkpt>
      <trkpt lat="44.75101" lon="5.91688">
        <ele>2105.22</ele>
        <time>2016-08-15T14:44:27Z</time>
      </trkpt>
      <trkpt lat="44.75078" lon="5.91696">
        <ele>2098.02</ele>
        <time>2016-08-15T14:45:06Z</time>
      </trkpt>
      <trkpt lat="44.75055" lon="5.91694">
        <ele>2095.81</ele>
        <time>2016-08-15T14:45:33Z</time>
      </trkpt>
      <trkpt lat="44.75035" lon="5.91679">
        <ele>2083.05</ele>
        <time>2016-08-15T14:46:33Z</time>
      </trkpt>
      <trkpt lat="44.75015" lon="5.91662">
        <ele>2075.27</ele>
        <time>2016-08-15T14:47:00Z</time>
      </trkpt>
      <trkpt lat="44.74991" lon="5.91656">
        <ele>2064.98</ele>
        <time>2016-08-15T14:47:32Z</time>
      </trkpt>
      <trkpt lat="44.7497" lon="5.91645">
        <ele>2061</ele>
        <time>2016-08-15T14:48:09Z</time>
      </trkpt>
      <trkpt lat="44.74949" lon="5.91634">
        <ele>2056.08</ele>
        <time>2016-08-15T14:48:34Z</time>
      </trkpt>
      <trkpt lat="44.74927" lon="5.91619">
        <ele>2042</ele>
        <time>2016-08-15T14:49:18Z</time>
      </trkpt>
      <trkpt lat="44.74905" lon="5.91611">
        <ele>2032.2</ele>
        <time>2016-08-15T14:49:56Z</time>
      </trkpt>
      <trkpt lat="44.74882" lon="5.91608">
        <ele>2035.05</ele>
        <time>2016-08-15T14:50:24Z</time>
      </trkpt>
      <trkpt lat="44.74858" lon="5.91604">
        <ele>2019.31</ele>
        <time>2016-08-15T14:50:58Z</time>
      </trkpt>
      <trkpt lat="44.7484" lon="5.91585">
        <ele>2009.31</ele>
        <time>2016-08-15T14:51:31Z</time>
      </trkpt>
      <trkpt lat="44.74819" lon="5.9157">
        <ele>2007.02</ele>
        <time>2016-08-15T14:51:56Z</time>
      </trkpt>
      <trkpt lat="44.74797" lon="5.91572">
        <ele>1989.28</ele>
        <time>2016-08-15T14:52:55Z</time>
      </trkpt>
      <trkpt lat="44.74775" lon="5.91559">
        <ele>1976.02</ele>
        <time>2016-08-15T14:55:58Z</time>
      </trkpt>
      <trkpt lat="44.74758" lon="5.91538">
        <ele>1964.07</ele>
        <time>2016-08-15T14:56:44Z</time>
      </trkpt>
      <trkpt lat="44.74739" lon="5.9152">
        <ele>1959.5</ele>
        <time>2016-08-15T14:57:09Z</time>
      </trkpt>
      <trkpt lat="44.74717" lon="5.91511">
        <ele>1955.26</ele>
        <time>2016-08-15T14:58:05Z</time>
      </trkpt>
      <trkpt lat="44.74694" lon="5.91513">
        <ele>1947.94</ele>
        <time>2016-08-15T14:58:41Z</time>
      </trkpt>
      <trkpt lat="44.74671" lon="5.91506">
        <ele>1941.07</ele>
        <time>2016-08-15T14:59:19Z</time>
      </trkpt>
      <trkpt lat="44.74653" lon="5.91487">
        <ele>1930.52</ele>
        <time>2016-08-15T15:00:52Z</time>
      </trkpt>
      <trkpt lat="44.74637" lon="5.91462">
        <ele>1928</ele>
        <time>2016-08-15T15:01:58Z</time>
      </trkpt>
      <trkpt lat="44.74621" lon="5.91438">
        <ele>1926.08</ele>
        <time>2016-08-15T15:02:18Z</time>
      </trkpt>
      <trkpt lat="44.746" lon="5.91423">
        <ele>1921.99</ele>
        <time>2016-08-15T15:03:12Z</time>
      </trkpt>
      <trkpt lat="44.74577" lon="5.9142">
        <ele>1910.81</ele>
        <time>2016-08-15T15:05:30Z</time>
      </trkpt>
      <trkpt lat="44.74554" lon="5.91414">
        <ele>1906.81</ele>
        <time>2016-08-15T15:06:46Z</time>
      </trkpt>
      <trkpt lat="44.7453" lon="5.91417">
        <ele>1900.5</ele>
        <time>2016-08-15T15:07:52Z</time>
      </trkpt>
      <trkpt lat="44.74506" lon="5.91423">
        <ele>1897.12</ele>
        <time>2016-08-15T15:08:08Z</time>
      </trkpt>
      <trkpt lat="44.74483" lon="5.91429">
        <ele>1882.3</ele>
        <time>2016-08-15T15:08:34Z</time>
      </trkpt>
      <trkpt lat="44.74459" lon="5.91426">
        <ele>1866.77</ele>
        <time>2016-08-15T15:09:05Z</time>
      </trkpt>
      <trkpt lat="44.74437" lon="5.91413">
        <ele>1861.07</ele>
        <time>2016-08-15T15:09:31Z</time>
      </trkpt>
      <trkpt lat="44.74414" lon="5.91405">
        <ele>1860.47</ele>
        <time>2016-08-15T15:09:59Z</time>
      </trkpt>
      <trkpt lat="44.74391" lon="5.91401">
        <ele>1856.96</ele>
        <time>2016-08-15T15:10:26Z</time>
      </trkpt>
      <trkpt lat="44.74375" lon="5.91423">
        <ele>1835.69</ele>
        <time>2016-08-15T15:12:51Z</time>
      </trkpt>
      <trkpt lat="44.74365" lon="5.91452">
        <ele>1825</ele>
        <time>2016-08-15T15:13:19Z</time>
      </trkpt>
      <trkpt lat="44.74342" lon="5.91452">
        <ele>1820.07</ele>
        <time>2016-08-15T15:13:45Z</time>
      </trkpt>
      <trkpt lat="44.74325" lon="5.91473">
        <ele>1812.95</ele>
        <time>2016-08-15T15:14:48Z</time>
      </trkpt>
      <trkpt lat="44.74303" lon="5.91482">
        <ele>1808.06</ele>
        <time>2016-08-15T15:15:16Z</time>
      </trkpt>
      <trkpt lat="44.7428" lon="5.91479">
        <ele>1807</ele>
        <time>2016-08-15T15:15:52Z</time>
      </trkpt>
      <trkpt lat="44.74257" lon="5.91467">
        <ele>1804.92</ele>
        <time>2016-08-15T15:16:07Z</time>
      </trkpt>
      <trkpt lat="44.74234" lon="5.9147">
        <ele>1796.87</ele>
        <time>2016-08-15T15:16:30Z</time>
      </trkpt>
      <trkpt lat="44.74211" lon="5.91462">
        <ele>1793.19</ele>
        <time>2016-08-15T15:16:49Z</time>
      </trkpt>
      <trkpt lat="44.74188" lon="5.91456">
        <ele>1788.05</ele>
        <time>2016-08-15T15:17:16Z</time>
      </trkpt>
      <trkpt lat="44.74166" lon="5.91454">
        <ele>1780.25</ele>
        <time>2016-08-15T15:17:44Z</time>
      </trkpt>
      <trkpt lat="44.74144" lon="5.91465">
        <ele>1779.02</ele>
        <time>2016-08-15T15:18:06Z</time>
      </trkpt>
      <trkpt lat="44.74121" lon="5.91459">
        <ele>1767.1</ele>
        <time>2016-08-15T15:18:37Z</time>
      </trkpt>
      <trkpt lat="44.74098" lon="5.91459">
        <ele>1755.27</ele>
        <time>2016-08-15T15:19:08Z</time>
      </trkpt>
      <trkpt lat="44.74075" lon="5.91459">
        <ele>1740.05</ele>
        <time>2016-08-15T15:20:23Z</time>
      </trkpt>
      <trkpt lat="44.74052" lon="5.91462">
        <ele>1731.32</ele>
        <time>2016-08-15T15:21:03Z</time>
      </trkpt>
      <trkpt lat="44.7403" lon="5.9146">
        <ele>1722.02</ele>
        <time>2016-08-15T15:21:23Z</time>
      </trkpt>
      <trkpt lat="44.74009" lon="5.91474">
        <ele>1711.05</ele>
        <time>2016-08-15T15:22:47Z</time>
      </trkpt>
      <trkpt lat="44.73987" lon="5.91479">
        <ele>1700</ele>
        <time>2016-08-15T15:23:22Z</time>
      </trkpt>
      <trkpt lat="44.73973" lon="5.91505">
        <ele>1694.02</ele>
        <time>2016-08-15T15:23:54Z</time>
      </trkpt>
      <trkpt lat="44.73959" lon="5.91531">
        <ele>1682.02</ele>
        <time>2016-08-15T15:24:37Z</time>
      </trkpt>
      <trkpt lat="44.73966" lon="5.91562">
        <ele>1683.01</ele>
        <time>2016-08-15T15:24:58Z</time>
      </trkpt>
      <trkpt lat="44.73964" lon="5.91595">
        <ele>1676.02</ele>
        <time>2016-08-15T15:25:31Z</time>
      </trkpt>
      <trkpt lat="44.73955" lon="5.91625">
        <ele>1663.08</ele>
        <time>2016-08-15T15:25:56Z</time>
      </trkpt>
      <trkpt lat="44.73948" lon="5.91656">
        <ele>1664.14</ele>
        <time>2016-08-15T15:26:23Z</time>
      </trkpt>
      <trkpt lat="44.73936" lon="5.91683">
        <ele>1657</ele>
        <time>2016-08-15T15:26:53Z</time>
      </trkpt>
      <trkpt lat="44.73919" lon="5.91704">
        <ele>1653.75</ele>
        <time>2016-08-15T15:27:24Z</time>
      </trkpt>
      <trkpt lat="44.73904" lon="5.91731">
        <ele>1636</ele>
        <time>2016-08-15T15:28:31Z</time>
      </trkpt>
      <trkpt lat="44.739" lon="5.91763">
        <ele>1628.08</ele>
        <time>2016-08-15T15:29:26Z</time>
      </trkpt>
      <trkpt lat="44.7389" lon="5.91794">
        <ele>1621.5</ele>
        <time>2016-08-15T15:30:03Z</time>
      </trkpt>
      <trkpt lat="44.73897" lon="5.91825">
        <ele>1617.02</ele>
        <time>2016-08-15T15:30:19Z</time>
      </trkpt>
      <trkpt lat="44.73882" lon="5.91851">
        <ele>1610.8</ele>
        <time>2016-08-15T15:30:40Z</time>
      </trkpt>
      <trkpt lat="44.73881" lon="5.91887">
        <ele>1604</ele>
        <time>2016-08-15T15:31:08Z</time>
      </trkpt>
      <trkpt lat="44.73869" lon="5.91915">
        <ele>1598.63</ele>
        <time>2016-08-15T15:31:49Z</time>
      </trkpt>
      <trkpt lat="44.73851" lon="5.91937">
        <ele>1587.94</ele>
        <time>2016-08-15T15:32:34Z</time>
      </trkpt>
      <trkpt lat="44.73834" lon="5.91959">
        <ele>1577.31</ele>
        <time>2016-08-15T15:34:04Z</time>
      </trkpt>
      <trkpt lat="44.73815" lon="5.91978">
        <ele>1563.38</ele>
        <time>2016-08-15T15:34:54Z</time>
      </trkpt>
      <trkpt lat="44.7379" lon="5.91978">
        <ele>1553</ele>
        <time>2016-08-15T15:35:16Z</time>
      </trkpt>
      <trkpt lat="44.73768" lon="5.91967">
        <ele>1553</ele>
        <time>2016-08-15T15:35:40Z</time>
      </trkpt>
      <trkpt lat="44.73753" lon="5.91942">
        <ele>1549.19</ele>
        <time>2016-08-15T15:36:02Z</time>
      </trkpt>
      <trkpt lat="44.73741" lon="5.91915">
        <ele>1546.36</ele>
        <time>2016-08-15T15:36:22Z</time>
      </trkpt>
      <trkpt lat="44.73735" lon="5.91883">
        <ele>1540.25</ele>
        <time>2016-08-15T15:36:51Z</time>
      </trkpt>
      <trkpt lat="44.73723" lon="5.91855">
        <ele>1527.43</ele>
        <time>2016-08-15T15:37:27Z</time>
      </trkpt>
      <trkpt lat="44.73703" lon="5.9184">
        <ele>1521.25</ele>
        <time>2016-08-15T15:38:15Z</time>
      </trkpt>
      <trkpt lat="44.73699" lon="5.91808">
        <ele>1509.07</ele>
        <time>2016-08-15T15:38:39Z</time>
      </trkpt>
      <trkpt lat="44.73704" lon="5.91774">
        <ele>1508.31</ele>
        <time>2016-08-15T15:39:04Z</time>
      </trkpt>
      <trkpt lat="44.73707" lon="5.91738">
        <ele>1503.25</ele>
        <time>2016-08-15T15:40:03Z</time>
      </trkpt>
      <trkpt lat="44.73708" lon="5.91705">
        <ele>1499.56</ele>
        <time>2016-08-15T15:40:19Z</time>
      </trkpt>
      <trkpt lat="44.73714" lon="5.91674">
        <ele>1499.02</ele>
        <time>2016-08-15T15:41:32Z</time>
      </trkpt>
      <trkpt lat="44.737" lon="5.91647">
        <ele>1497.09</ele>
        <time>2016-08-15T15:41:56Z</time>
      </trkpt>
      <trkpt lat="44.73685" lon="5.91622">
        <ele>1493</ele>
        <time>2016-08-15T15:42:11Z</time>
      </trkpt>
      <trkpt lat="44.7368" lon="5.9159">
        <ele>1488.09</ele>
        <time>2016-08-15T15:42:33Z</time>
      </trkpt>
      <trkpt lat="44.73668" lon="5.91563">
        <ele>1482.27</ele>
        <time>2016-08-15T15:42:49Z</time>
      </trkpt>
      <trkpt lat="44.73677" lon="5.91533">
        <ele>1488.94</ele>
        <time>2016-08-15T15:43:09Z</time>
      </trkpt>
      <trkpt lat="44.73686" lon="5.91502">
        <ele>1489.98</ele>
        <time>2016-08-15T15:43:27Z</time>
      </trkpt>
      <trkpt lat="44.73704" lon="5.91482">
        <ele>1486.54</ele>
        <time>2016-08-15T15:43:50Z</time>
      </trkpt>
      <trkpt lat="44.73723" lon="5.91461">
        <ele>1486.14</ele>
        <time>2016-08-15T15:44:10Z</time>
      </trkpt>
      <trkpt lat="44.7374" lon="5.91437">
        <ele>1482</ele>
        <time>2016-08-15T15:44:36Z</time>
      </trkpt>
      <trkpt lat="44.73758" lon="5.91415">
        <ele>1485</ele>
        <time>2016-08-15T15:44:55Z</time>
      </trkpt>
      <trkpt lat="44.73771" lon="5.9139">
        <ele>1481.77</ele>
        <time>2016-08-15T15:45:21Z</time>
      </trkpt>
      <trkpt lat="44.73787" lon="5.91365">
        <ele>1473.75</ele>
        <time>2016-08-15T15:46:38Z</time>
      </trkpt>
      <trkpt lat="44.73797" lon="5.91337">
        <ele>1473.97</ele>
        <time>2016-08-15T15:46:57Z</time>
      </trkpt>
      <trkpt lat="44.73788" lon="5.91306">
        <ele>1467.69</ele>
        <time>2016-08-15T15:47:26Z</time>
      </trkpt>
      <trkpt lat="44.73783" lon="5.91274">
        <ele>1457.96</ele>
        <time>2016-08-15T15:47:51Z</time>
      </trkpt>
      <trkpt lat="44.73782" lon="5.91243">
        <ele>1454.3</ele>
        <time>2016-08-15T15:48:13Z</time>
      </trkpt>
      <trkpt lat="44.73773" lon="5.91213">
        <ele>1444.07</ele>
        <time>2016-08-15T15:48:33Z</time>
      </trkpt>
      <trkpt lat="44.73758" lon="5.91189">
        <ele>1443.06</ele>
        <time>2016-08-15T15:48:53Z</time>
      </trkpt>
      <trkpt lat="44.73753" lon="5.91158">
        <ele>1441.52</ele>
        <time>2016-08-15T15:49:18Z</time>
      </trkpt>
      <trkpt lat="44.73755" lon="5.91126">
        <ele>1439.75</ele>
        <time>2016-08-15T15:49:39Z</time>
      </trkpt>
      <trkpt lat="44.73736" lon="5.91107">
        <ele>1448.67</ele>
        <time>2016-08-15T15:50:21Z</time>
      </trkpt>
      <trkpt lat="44.73721" lon="5.91081">
        <ele>1447.03</ele>
        <time>2016-08-15T15:50:48Z</time>
      </trkpt>
      <trkpt lat="44.73706" lon="5.91057">
        <ele>1453.5</ele>
        <time>2016-08-15T15:51:18Z</time>
      </trkpt>
      <trkpt lat="44.73686" lon="5.91042">
        <ele>1443.13</ele>
        <time>2016-08-15T15:51:29Z</time>
      </trkpt>
      <trkpt lat="44.73663" lon="5.91041">
        <ele>1442.07</ele>
        <time>2016-08-15T15:51:51Z</time>
      </trkpt>
      <trkpt lat="44.73649" lon="5.91015">
        <ele>1438.99</ele>
        <time>2016-08-15T15:52:22Z</time>
      </trkpt>
      <trkpt lat="44.73641" lon="5.90986">
        <ele>1434</ele>
        <time>2016-08-15T15:52:46Z</time>
      </trkpt>
      <trkpt lat="44.73622" lon="5.90967">
        <ele>1423.36</ele>
        <time>2016-08-15T15:54:18Z</time>
      </trkpt>
      <trkpt lat="44.73619" lon="5.90934">
        <ele>1421.3</ele>
        <time>2016-08-15T15:54:39Z</time>
      </trkpt>
      <trkpt lat="44.73634" lon="5.90909">
        <ele>1414.44</ele>
        <time>2016-08-15T15:58:53Z</time>
      </trkpt>
      <trkpt lat="44.73656" lon="5.90909">
        <ele>1415.22</ele>
        <time>2016-08-15T15:59:10Z</time>
      </trkpt>
      <trkpt lat="44.73679" lon="5.90912">
        <ele>1412.25</ele>
        <time>2016-08-15T15:59:28Z</time>
      </trkpt>
      <trkpt lat="44.73702" lon="5.90908">
        <ele>1410.76</ele>
        <time>2016-08-15T15:59:47Z</time>
      </trkpt>
      <trkpt lat="44.73725" lon="5.90913">
        <ele>1406.27</ele>
        <time>2016-08-15T16:00:05Z</time>
      </trkpt>
      <trkpt lat="44.73748" lon="5.9091">
        <ele>1403.02</ele>
        <time>2016-08-15T16:00:24Z</time>
      </trkpt>
      <trkpt lat="44.73766" lon="5.90891">
        <ele>1400.81</ele>
        <time>2016-08-15T16:00:41Z</time>
      </trkpt>
      <trkpt lat="44.73788" lon="5.90882">
        <ele>1400.36</ele>
        <time>2016-08-15T16:01:01Z</time>
      </trkpt>
      <trkpt lat="44.73812" lon="5.90885">
        <ele>1395.02</ele>
        <time>2016-08-15T16:01:21Z</time>
      </trkpt>
      <trkpt lat="44.73834" lon="5.90882">
        <ele>1388.05</ele>
        <time>2016-08-15T16:01:36Z</time>
      </trkpt>
      <trkpt lat="44.73855" lon="5.90867">
        <ele>1384.21</ele>
        <time>2016-08-15T16:01:54Z</time>
      </trkpt>
      <trkpt lat="44.73878" lon="5.90861">
        <ele>1383.19</ele>
        <time>2016-08-15T16:02:10Z</time>
      </trkpt>
      <trkpt lat="44.73898" lon="5.90844">
        <ele>1384.93</ele>
        <time>2016-08-15T16:02:27Z</time>
      </trkpt>
      <trkpt lat="44.7392" lon="5.90833">
        <ele>1386.76</ele>
        <time>2016-08-15T16:02:49Z</time>
      </trkpt>
      <trkpt lat="44.73912" lon="5.90803">
        <ele>1381.25</ele>
        <time>2016-08-15T16:04:05Z</time>
      </trkpt>
      <trkpt lat="44.73929" lon="5.90828">
        <ele>1381.98</ele>
        <time>2016-08-15T16:04:43Z</time>
      </trkpt>
      <trkpt lat="44.73938" lon="5.90799">
        <ele>1385.06</ele>
        <time>2016-08-15T16:05:12Z</time>
      </trkpt>
      <trkpt lat="44.7396" lon="5.90788">
        <ele>1382.27</ele>
        <time>2016-08-15T16:05:30Z</time>
      </trkpt>
      <trkpt lat="44.73974" lon="5.90763">
        <ele>1383.02</ele>
        <time>2016-08-15T16:05:53Z</time>
      </trkpt>
      <trkpt lat="44.73986" lon="5.90735">
        <ele>1381.02</ele>
        <time>2016-08-15T16:07:05Z</time>
      </trkpt>
      <trkpt lat="44.74001" lon="5.90712">
        <ele>1379</ele>
        <time>2016-08-15T16:07:22Z</time>
      </trkpt>
      <trkpt lat="44.74008" lon="5.90681">
        <ele>1379.02</ele>
        <time>2016-08-15T16:07:38Z</time>
      </trkpt>
      <trkpt lat="44.74005" lon="5.90648">
        <ele>1379.79</ele>
        <time>2016-08-15T16:07:53Z</time>
      </trkpt>
      <trkpt lat="44.74012" lon="5.90617">
        <ele>1375.81</ele>
        <time>2016-08-15T16:08:12Z</time>
      </trkpt>
      <trkpt lat="44.74021" lon="5.90588">
        <ele>1374.05</ele>
        <time>2016-08-15T16:08:27Z</time>
      </trkpt>
      <trkpt lat="44.74033" lon="5.90561">
        <ele>1373</ele>
        <time>2016-08-15T16:08:46Z</time>
      </trkpt>
      <trkpt lat="44.74038" lon="5.90529">
        <ele>1369.32</ele>
        <time>2016-08-15T16:09:06Z</time>
      </trkpt>
      <trkpt lat="44.74032" lon="5.90497">
        <ele>1364.07</ele>
        <time>2016-08-15T16:09:20Z</time>
      </trkpt>
      <trkpt lat="44.74035" lon="5.90464">
        <ele>1364.22</ele>
        <time>2016-08-15T16:09:41Z</time>
      </trkpt>
      <trkpt lat="44.74043" lon="5.90433">
        <ele>1360</ele>
        <time>2016-08-15T16:10:03Z</time>
      </trkpt>
      <trkpt lat="44.74039" lon="5.90397">
        <ele>1358.43</ele>
        <time>2016-08-15T16:10:19Z</time>
      </trkpt>
      <trkpt lat="44.74037" lon="5.90365">
        <ele>1355.33</ele>
        <time>2016-08-15T16:10:36Z</time>
      </trkpt>
      <trkpt lat="44.74045" lon="5.90336">
        <ele>1353.09</ele>
        <time>2016-08-15T16:11:05Z</time>
      </trkpt>
      <trkpt lat="44.7405" lon="5.90303">
        <ele>1348.12</ele>
        <time>2016-08-15T16:11:26Z</time>
      </trkpt>
      <trkpt lat="44.74035" lon="5.90326">
        <ele>1351.5</ele>
        <time>2016-08-15T16:11:57Z</time>
      </trkpt>
      <trkpt lat="44.74014" lon="5.9034">
        <ele>1344.27</ele>
        <time>2016-08-15T16:12:21Z</time>
      </trkpt>
      <trkpt lat="44.73995" lon="5.90358">
        <ele>1332.21</ele>
        <time>2016-08-15T16:12:40Z</time>
      </trkpt>
      <trkpt lat="44.73975" lon="5.90373">
        <ele>1331.99</ele>
        <time>2016-08-15T16:12:57Z</time>
      </trkpt>
      <trkpt lat="44.73963" lon="5.90401">
        <ele>1332.36</ele>
        <time>2016-08-15T16:13:13Z</time>
      </trkpt>
      <trkpt lat="44.7394" lon="5.90408">
        <ele>1328.65</ele>
        <time>2016-08-15T16:13:35Z</time>
      </trkpt>
      <trkpt lat="44.73932" lon="5.90377">
        <ele>1320.1</ele>
        <time>2016-08-15T16:13:51Z</time>
      </trkpt>
      <trkpt lat="44.73948" lon="5.90353">
        <ele>1309.2</ele>
        <time>2016-08-15T16:16:21Z</time>
      </trkpt>
      <trkpt lat="44.73941" lon="5.90323">
        <ele>1309.87</ele>
        <time>2016-08-15T16:19:03Z</time>
      </trkpt>
      <trkpt lat="44.7393" lon="5.90295">
        <ele>1309.33</ele>
        <time>2016-08-15T16:19:17Z</time>
      </trkpt>
      <trkpt lat="44.73933" lon="5.90264">
        <ele>1318.73</ele>
        <time>2016-08-15T16:19:37Z</time>
      </trkpt>
      <trkpt lat="44.73921" lon="5.90236">
        <ele>1317.07</ele>
        <time>2016-08-15T16:19:55Z</time>
      </trkpt>
      <trkpt lat="44.73906" lon="5.90261">
        <ele>1317.07</ele>
        <time>2016-08-15T16:20:18Z</time>
      </trkpt>
      <trkpt lat="44.73892" lon="5.90289">
        <ele>1318.94</ele>
        <time>2016-08-15T16:20:37Z</time>
      </trkpt>
      <trkpt lat="44.73893" lon="5.90324">
        <ele>1318.19</ele>
        <time>2016-08-15T16:21:04Z</time>
      </trkpt>
      <trkpt lat="44.73881" lon="5.90295">
        <ele>1309.77</ele>
        <time>2016-08-15T16:21:32Z</time>
      </trkpt>
      <trkpt lat="44.7387" lon="5.90266">
        <ele>1311.46</ele>
        <time>2016-08-15T16:21:48Z</time>
      </trkpt>
      <trkpt lat="44.73847" lon="5.90247">
        <ele>1303.09</ele>
        <time>2016-08-15T16:22:37Z</time>
      </trkpt>
      <trkpt lat="44.73834" lon="5.90221">
        <ele>1295.21</ele>
        <time>2016-08-15T16:22:53Z</time>
      </trkpt>
      <trkpt lat="44.73814" lon="5.90197">
        <ele>1296.1</ele>
        <time>2016-08-15T16:23:19Z</time>
      </trkpt>
      <trkpt lat="44.73791" lon="5.90189">
        <ele>1294.95</ele>
        <time>2016-08-15T16:23:33Z</time>
      </trkpt>
      <trkpt lat="44.73768" lon="5.90182">
        <ele>1293.11</ele>
        <time>2016-08-15T16:23:52Z</time>
      </trkpt>
      <trkpt lat="44.73745" lon="5.90184">
        <ele>1289.01</ele>
        <time>2016-08-15T16:24:08Z</time>
      </trkpt>
      <trkpt lat="44.73724" lon="5.90168">
        <ele>1287.79</ele>
        <time>2016-08-15T16:24:31Z</time>
      </trkpt>
      <trkpt lat="44.73702" lon="5.90156">
        <ele>1287.31</ele>
        <time>2016-08-15T16:24:58Z</time>
      </trkpt>
      <trkpt lat="44.73679" lon="5.90158">
        <ele>1280.25</ele>
        <time>2016-08-15T16:25:24Z</time>
      </trkpt>
      <trkpt lat="44.73656" lon="5.90163">
        <ele>1273.94</ele>
        <time>2016-08-15T16:25:48Z</time>
      </trkpt>
      <trkpt lat="44.73644" lon="5.90134">
        <ele>1270.23</ele>
        <time>2016-08-15T16:27:26Z</time>
      </trkpt>
      <trkpt lat="44.73628" lon="5.9011">
        <ele>1268</ele>
        <time>2016-08-15T16:27:41Z</time>
      </trkpt>
      <trkpt lat="44.73606" lon="5.90105">
        <ele>1246.11</ele>
        <time>2016-08-15T16:29:12Z</time>
      </trkpt>
      <trkpt lat="44.73584" lon="5.90089">
        <ele>1238.02</ele>
        <time>2016-08-15T16:29:30Z</time>
      </trkpt>
      <trkpt lat="44.7359" lon="5.90055">
        <ele>1237.25</ele>
        <time>2016-08-15T16:29:51Z</time>
      </trkpt>
      <trkpt lat="44.73601" lon="5.90028">
        <ele>1238.18</ele>
        <time>2016-08-15T16:30:15Z</time>
      </trkpt>
      <trkpt lat="44.73603" lon="5.89995">
        <ele>1233.89</ele>
        <time>2016-08-15T16:30:39Z</time>
      </trkpt>
      <trkpt lat="44.73583" lon="5.89978">
        <ele>1218.3</ele>
        <time>2016-08-15T16:31:00Z</time>
      </trkpt>
      <trkpt lat="44.73564" lon="5.89959">
        <ele>1217.83</ele>
        <time>2016-08-15T16:31:17Z</time>
      </trkpt>
      <trkpt lat="44.73553" lon="5.89928">
        <ele>1214</ele>
        <time>2016-08-15T16:31:58Z</time>
      </trkpt>
      <trkpt lat="44.73557" lon="5.89896">
        <ele>1211.19</ele>
        <time>2016-08-15T16:32:25Z</time>
      </trkpt>
      <trkpt lat="44.73534" lon="5.89891">
        <ele>1196.02</ele>
        <time>2016-08-15T16:33:23Z</time>
      </trkpt>
      <trkpt lat="44.73518" lon="5.89914">
        <ele>1190.29</ele>
        <time>2016-08-15T16:33:46Z</time>
      </trkpt>
      <trkpt lat="44.73496" lon="5.89922">
        <ele>1183.08</ele>
        <time>2016-08-15T16:34:13Z</time>
      </trkpt>
      <trkpt lat="44.73474" lon="5.89934">
        <ele>1175.08</ele>
        <time>2016-08-15T16:34:45Z</time>
      </trkpt>
      <trkpt lat="44.73485" lon="5.89906">
        <ele>1165.08</ele>
        <time>2016-08-15T16:35:54Z</time>
      </trkpt>
      <trkpt lat="44.73499" lon="5.8988">
        <ele>1160.71</ele>
        <time>2016-08-15T16:36:11Z</time>
      </trkpt>
      <trkpt lat="44.735" lon="5.89848">
        <ele>1155.8</ele>
        <time>2016-08-15T16:36:25Z</time>
      </trkpt>
      <trkpt lat="44.73518" lon="5.89828">
        <ele>1151.07</ele>
        <time>2016-08-15T16:36:46Z</time>
      </trkpt>
      <trkpt lat="44.73529" lon="5.89799">
        <ele>1153.19</ele>
        <time>2016-08-15T16:37:20Z</time>
      </trkpt>
      <trkpt lat="44.73541" lon="5.8977">
        <ele>1140.37</ele>
        <time>2016-08-15T16:37:43Z</time>
      </trkpt>
      <trkpt lat="44.7354" lon="5.89735">
        <ele>1129.03</ele>
        <time>2016-08-15T16:38:31Z</time>
      </trkpt>
      <trkpt lat="44.73517" lon="5.89738">
        <ele>1129.05</ele>
        <time>2016-08-15T16:38:48Z</time>
      </trkpt>
      <trkpt lat="44.73514" lon="5.89706">
        <ele>1109.01</ele>
        <time>2016-08-15T16:39:48Z</time>
      </trkpt>
      <trkpt lat="44.73523" lon="5.89673">
        <ele>1110.98</ele>
        <time>2016-08-15T16:40:06Z</time>
      </trkpt>
      <trkpt lat="44.73528" lon="5.89641">
        <ele>1099.11</ele>
        <time>2016-08-15T16:41:29Z</time>
      </trkpt>
      <trkpt lat="44.73541" lon="5.89614">
        <ele>1094.26</ele>
        <time>2016-08-15T16:41:52Z</time>
      </trkpt>
      <trkpt lat="44.73526" lon="5.89591">
        <ele>1092.02</ele>
        <time>2016-08-15T16:42:34Z</time>
      </trkpt>
      <trkpt lat="44.73504" lon="5.8958">
        <ele>1093.12</ele>
        <time>2016-08-15T16:42:56Z</time>
      </trkpt>
      <trkpt lat="44.73513" lon="5.89551">
        <ele>1080</ele>
        <time>2016-08-15T16:43:56Z</time>
      </trkpt>
      <trkpt lat="44.73505" lon="5.8952">
        <ele>1075.31</ele>
        <time>2016-08-15T16:44:15Z</time>
      </trkpt>
      <trkpt lat="44.73483" lon="5.89515">
        <ele>1072.95</ele>
        <time>2016-08-15T16:44:36Z</time>
      </trkpt>
      <trkpt lat="44.7346" lon="5.89519">
        <ele>1073</ele>
        <time>2016-08-15T16:45:00Z</time>
      </trkpt>
      <trkpt lat="44.7345" lon="5.89549">
        <ele>1080.6</ele>
        <time>2016-08-15T16:45:23Z</time>
      </trkpt>
      <trkpt lat="44.73444" lon="5.89581">
        <ele>1088</ele>
        <time>2016-08-15T16:45:54Z</time>
      </trkpt>
      <trkpt lat="44.73425" lon="5.89606">
        <ele>1080.25</ele>
        <time>2016-08-15T16:46:05Z</time>
      </trkpt>
      <trkpt lat="44.73399" lon="5.89619">
        <ele>1082.94</ele>
        <time>2016-08-15T16:46:24Z</time>
      </trkpt>
      <trkpt lat="44.73375" lon="5.89618">
        <ele>1088.08</ele>
        <time>2016-08-15T16:46:49Z</time>
      </trkpt>
      <trkpt lat="44.73353" lon="5.89607">
        <ele>1088.68</ele>
        <time>2016-08-15T16:47:12Z</time>
      </trkpt>
      <trkpt lat="44.73329" lon="5.89601">
        <ele>1083.89</ele>
        <time>2016-08-15T16:47:39Z</time>
      </trkpt>
      <trkpt lat="44.73307" lon="5.89613">
        <ele>1084.08</ele>
        <time>2016-08-15T16:47:59Z</time>
      </trkpt>
      <trkpt lat="44.73283" lon="5.89623">
        <ele>1085.29</ele>
        <time>2016-08-15T16:48:20Z</time>
      </trkpt>
      <trkpt lat="44.73261" lon="5.89638">
        <ele>1088.81</ele>
        <time>2016-08-15T16:49:03Z</time>
      </trkpt>
      <trkpt lat="44.73241" lon="5.89655">
        <ele>1088</ele>
        <time>2016-08-15T16:49:21Z</time>
      </trkpt>
      <trkpt lat="44.73217" lon="5.89663">
        <ele>1085.83</ele>
        <time>2016-08-15T16:49:43Z</time>
      </trkpt>
      <trkpt lat="44.73195" lon="5.89668">
        <ele>1088.63</ele>
        <time>2016-08-15T16:49:58Z</time>
      </trkpt>
      <trkpt lat="44.73172" lon="5.89656">
        <ele>1090</ele>
        <time>2016-08-15T16:50:20Z</time>
      </trkpt>
      <trkpt lat="44.73148" lon="5.8967">
        <ele>1087.83</ele>
        <time>2016-08-15T16:50:38Z</time>
      </trkpt>
      <trkpt lat="44.73126" lon="5.89682">
        <ele>1087.39</ele>
        <time>2016-08-15T16:50:55Z</time>
      </trkpt>
      <trkpt lat="44.73106" lon="5.89698">
        <ele>1086.5</ele>
        <time>2016-08-15T16:51:14Z</time>
      </trkpt>
      <trkpt lat="44.73084" lon="5.89709">
        <ele>1098.99</ele>
        <time>2016-08-15T16:51:33Z</time>
      </trkpt>
      <trkpt lat="44.73062" lon="5.8972">
        <ele>1096.29</ele>
        <time>2016-08-15T16:52:05Z</time>
      </trkpt>
      <trkpt lat="44.73051" lon="5.89748">
        <ele>1092.67</ele>
        <time>2016-08-15T16:52:28Z</time>
      </trkpt>
      <trkpt lat="44.73047" lon="5.89782">
        <ele>1088.25</ele>
        <time>2016-08-15T16:52:46Z</time>
      </trkpt>
      <trkpt lat="44.73036" lon="5.8981">
        <ele>1089</ele>
        <time>2016-08-15T16:53:10Z</time>
      </trkpt>
      <trkpt lat="44.73015" lon="5.89824">
        <ele>1090.06</ele>
        <time>2016-08-15T16:53:33Z</time>
      </trkpt>
      <trkpt lat="44.7301" lon="5.89831">
        <ele>1088</ele>
        <time>2016-08-15T16:53:59Z</time>
      </trkpt>
    </trkseg>
  </trk>
</gpx>